createdAt,value
2019-06-20T17:49:49.389Z,99364.72
2019-06-20T17:52:21.438Z,99362.13
2019-06-20T17:54:53.494Z,99366.02
2019-06-20T17:57:25.800Z,99363.59
2019-06-20T17:59:57.774Z,99365.42
2019-06-20T18:02:29.322Z,99366.11
2019-06-20T18:05:01.871Z,99361.86
2019-06-20T18:07:33.710Z,99367.53
2019-06-20T18:10:06.222Z,99368.63
2019-06-20T18:12:38.229Z,99371.50
2019-06-20T18:15:11.321Z,99374.42
2019-06-20T18:17:56.443Z,99388.45
2019-06-20T18:20:28.443Z,99381.55
2019-06-20T18:22:59.915Z,99384.90
2019-06-20T18:25:34.320Z,99390.55
2019-06-20T18:28:06.492Z,99400.23
2019-06-20T18:30:43.109Z,99402.89
2019-06-20T18:33:15.163Z,99410.86
2019-06-20T18:35:46.535Z,99412.81
2019-06-20T18:38:20.499Z,99416.18
2019-06-20T18:40:56.810Z,99420.50
2019-06-20T18:43:28.320Z,99420.50
2019-06-20T18:46:02.211Z,99414.14
2019-06-20T18:48:34.233Z,99411.87
2019-06-20T18:51:06.310Z,99413.20
2019-06-20T18:53:38.645Z,99415.36
2019-06-20T18:56:10.138Z,99417.53
2019-06-20T18:58:42.151Z,99418.91
2019-06-20T19:01:14.156Z,99420.09
2019-06-20T19:03:45.933Z,99420.27
2019-06-20T19:06:17.852Z,99432.27
2019-06-20T19:08:55.188Z,99425.95
2019-06-20T19:11:27.512Z,99425.30
2019-06-20T19:14:00.073Z,99426.35
2019-06-20T19:16:31.908Z,99430.51
2019-06-20T19:19:11.955Z,99428.86
2019-06-20T19:22:07.716Z,99435.34
2019-06-20T19:32:37.873Z,99440.17
2019-06-20T19:35:22.520Z,99431.53
2019-06-20T19:37:57.850Z,99430.55
2019-06-20T19:40:33.461Z,99434.70
2019-06-20T19:43:16.482Z,99432.42
2019-06-20T19:45:55.737Z,99430.94
2019-06-20T19:48:41.333Z,99428.77
2019-06-20T19:51:27.654Z,99434.75
2019-06-20T19:54:06.553Z,99431.81
2019-06-20T19:56:49.692Z,99422.85
2019-06-20T19:59:25.868Z,99430.16
2019-06-20T20:02:51.764Z,99436.35
2019-06-20T20:05:26.147Z,99434.35
2019-06-20T20:08:09.308Z,99441.83
2019-06-20T20:10:46.203Z,99438.60
2019-06-20T20:13:18.768Z,99438.60
2019-06-20T20:16:07.091Z,99442.59
2019-06-20T20:18:43.892Z,99446.58
2019-06-20T20:21:24.639Z,99449.27
2019-06-20T20:24:07.633Z,99451.59
2019-06-20T20:26:41.043Z,99456.95
2019-06-20T20:33:04.433Z,99461.02
2019-06-20T20:35:38.831Z,99460.42
2019-06-20T20:38:19.205Z,99464.73
2019-06-20T20:40:51.330Z,99462.45
2019-06-20T20:43:23.181Z,99457.64
2019-06-20T20:45:59.853Z,99466.42
2019-06-20T20:48:32.446Z,99480.02
2019-06-20T20:51:08.848Z,99477.37
2019-06-20T20:53:41.035Z,99476.76
2019-06-20T20:56:18.944Z,99481.42
2019-06-20T20:59:19.647Z,99478.61
2019-06-20T21:02:02.757Z,99474.45
2019-06-20T21:09:23.917Z,99471.80
2019-06-20T21:11:57.828Z,99472.16
2019-06-20T21:14:30.576Z,99478.12
2019-06-20T21:17:03.173Z,99479.47
2019-06-20T21:19:42.566Z,99473.16
2019-06-20T21:22:14.887Z,99480.15
2019-06-20T21:24:55.759Z,99476.15
2019-06-20T21:27:31.942Z,99474.83
2019-06-20T21:30:05.489Z,99474.83
2019-06-20T21:32:37.666Z,99472.48
2019-06-20T21:35:12.291Z,99479.11
2019-06-20T21:37:44.175Z,99481.78
2019-06-20T21:40:19.692Z,99482.43
2019-06-20T21:42:57.415Z,99483.28
2019-06-20T21:45:29.378Z,99477.81
2019-06-20T21:48:01.459Z,99477.97
2019-06-20T21:50:33.668Z,99480.78
2019-06-20T21:53:06.077Z,99478.48
2019-06-20T21:55:42.752Z,99474.55
2019-06-20T21:58:15.405Z,99477.20
2019-06-20T22:00:56.198Z,99483.82
2019-06-20T22:03:30.172Z,99484.13
2019-06-20T22:06:05.116Z,99483.33
2019-06-20T22:08:40.521Z,99478.83
2019-06-20T22:11:12.913Z,99486.45
2019-06-20T22:13:47.272Z,99484.14
2019-06-20T22:16:20.160Z,99478.83
2019-06-20T22:18:51.822Z,99481.31
2019-06-20T22:21:39.627Z,99484.31
2019-06-20T22:24:34.668Z,99492.07
2019-06-20T22:27:22.199Z,99487.93
2019-06-20T22:30:07.254Z,99490.09
2019-06-20T22:32:44.859Z,99497.37
2019-06-20T22:35:25.615Z,99491.94
2019-06-20T22:38:18.406Z,99492.59
2019-06-20T22:40:54.087Z,99486.78
2019-06-20T22:43:58.627Z,99484.15
2019-06-20T22:46:47.444Z,99485.80
2019-06-20T22:49:18.768Z,99494.08
2019-06-20T22:52:13.234Z,99487.95
2019-06-20T22:54:41.915Z,99486.30
2019-06-20T23:00:36.413Z,99487.97
2019-06-20T23:03:28.280Z,99480.51
2019-06-20T23:06:03.182Z,99487.80
2019-06-20T23:09:01.634Z,99488.13
2019-06-20T23:12:39.973Z,99480.81
2019-06-20T23:15:43.792Z,99479.83
2019-06-20T23:26:38.337Z,99471.23
2019-06-20T23:29:37.673Z,99471.88
2019-06-20T23:32:11.956Z,99468.23
2019-06-20T23:34:44.718Z,99466.58
2019-06-20T23:37:19.177Z,99458.30
2019-06-20T23:39:53.447Z,99465.27
2019-06-20T23:42:26.186Z,99460.80
2019-06-20T23:44:58.586Z,99459.94
2019-06-20T23:47:32.751Z,99464.59
2019-06-20T23:50:04.775Z,99464.59
2019-06-20T23:52:38.649Z,99463.94
2019-06-20T23:55:11.328Z,99465.75
2019-06-20T23:57:43.373Z,99465.91
